RKPC

Jeju International Airport

Jeju City, South Korea
TAF RKPC 200500Z 2006/2112 34015G25KT 9999 SCT030 TN03/2021Z TX07/2106Z BECMG 2011/2012 BKN030 BECMG 2100/2101 29012KT SCT030
Issued Valid From Valid To
Jan-20 @ 05:00 UTC
(7 hours ago)
Jan-20 @ 06:00 UTC
(6 hours ago)
Jan-21 @ 12:00 UTC
(in 24 hours)
Expired Click to View Jan-20 @ 06:00 to Jan-20 @ 11:00
TAF RKPC 200500Z 2006/2112 34015G25KT 9999 SCT030 TN03/2021Z TX07/2106Z
Wind Visibility Clouds
340° at 15 knots
 Gusting to 25 knots
10,000+ meters
  • Scattered at 3,000' AGL
Becoming Jan-20 @ 11:00 to Jan-21 @ 00:00
BECMG 2011/2012 BKN030
Wind Visibility Clouds
340° at 15 knots
 Gusting to 25 knots
10,000+ meters
  • Broken at 3,000' AGL
Becoming Jan-21 @ 00:00 to Jan-21 @ 12:00
BECMG 2100/2101 29012KT SCT030
Wind Visibility Clouds
290° at 12 knots 10,000+ meters
  • Scattered at 3,000' AGL
TAF RKPC 200500Z 2006/2112 34015G25KT 9999 SCT030 TN03/2021Z TX07/2106Z BECMG 2011/2012 BKN030 BECMG 2100/2101 29012KT SCT030
Issued Jan-20 @ 05:00 UTC
(7 hours ago)
Valid From Jan-20 @ 06:00 UTC
(6 hours ago)
Valid To Jan-21 @ 12:00 UTC
(in 24 hours)
Jan-20 @ 06:00 - Jan-20 @ 11:00
Wind Visibility
340° at 15 knots
 Gusting to 25 knots
10,000+ meters
Clouds
  • Scattered at 3,000' AGL
Becoming Jan-20 @ 11:00 - Jan-21 @ 00:00
Wind Visibility
340° at 15 knots
 Gusting to 25 knots
10,000+ meters
Clouds
  • Broken at 3,000' AGL
Becoming Jan-21 @ 00:00 - Jan-21 @ 12:00
Wind Visibility
290° at 12 knots 10,000+ meters
Clouds
  • Scattered at 3,000' AGL